sensor_id;sensor_type;location;lat;lon;timestamp;P1;durP1;ratioP1;P2;durP2;ratioP2
2462;SDS011;1243;54.298;10.172;2022-10-31T00:01:00;23.53;;;14.80;;
2462;SDS011;1243;54.298;10.172;2022-10-31T00:03:26;22.20;;;14.60;;
2462;SDS011;1243;54.298;10.172;2022-10-31T00:05:51;21.80;;;13.27;;
2462;SDS011;1243;54.298;10.172;2022-10-31T00:08:17;21.20;;;16.00;;
2462;SDS011;1243;54.298;10.172;2022-10-31T00:10:44;22.53;;;14.30;;
2462;SDS011;1243;54.298;10.172;2022-10-31T00:13:10;20.70;;;14.57;;
2462;SDS011;1243;54.298;10.172;2022-10-31T00:15:37;18.03;;;14.83;;
2462;SDS011;1243;54.298;10.172;2022-10-31T00:18:04;26.27;;;17.23;;
2462;SDS011;1243;54.298;10.172;2022-10-31T00:20:30;20.17;;;13.83;;
2462;SDS011;1243;54.298;10.172;2022-10-31T00:22:59;30.47;;;17.60;;
2462;SDS011;1243;54.298;10.172;2022-10-31T00:25:27;24.30;;;16.43;;
2462;SDS011;1243;54.298;10.172;2022-10-31T00:27:53;26.47;;;18.80;;
2462;SDS011;1243;54.298;10.172;2022-10-31T00:30:19;25.70;;;18.33;;
2462;SDS011;1243;54.298;10.172;2022-10-31T00:32:45;27.80;;;18.37;;
2462;SDS011;1243;54.298;10.172;2022-10-31T00:35:10;33.60;;;20.60;;
2462;SDS011;1243;54.298;10.172;2022-10-31T00:37:36;30.47;;;17.90;;
2462;SDS011;1243;54.298;10.172;2022-10-31T00:40:02;31.50;;;20.70;;
2462;SDS011;1243;54.298;10.172;2022-10-31T00:42:28;33.37;;;18.60;;
2462;SDS011;1243;54.298;10.172;2022-10-31T00:44:53;26.97;;;20.13;;
2462;SDS011;1243;54.298;10.172;2022-10-31T00:47:19;27.30;;;19.77;;
2462;SDS011;1243;54.298;10.172;2022-10-31T00:49:44;33.17;;;19.33;;
2462;SDS011;1243;54.298;10.172;2022-10-31T00:52:10;24.53;;;17.97;;
2462;SDS011;1243;54.298;10.172;2022-10-31T00:54:36;32.73;;;19.87;;
2462;SDS011;1243;54.298;10.172;2022-10-31T00:57:01;25.23;;;17.40;;
2462;SDS011;1243;54.298;10.172;2022-10-31T00:59:27;20.30;;;16.30;;
2462;SDS011;1243;54.298;10.172;2022-10-31T01:01:53;26.53;;;18.57;;
2462;SDS011;1243;54.298;10.172;2022-10-31T01:04:18;27.50;;;16.70;;
2462;SDS011;1243;54.298;10.172;2022-10-31T01:06:44;27.93;;;18.20;;
2462;SDS011;1243;54.298;10.172;2022-10-31T01:09:10;27.07;;;17.63;;
2462;SDS011;1243;54.298;10.172;2022-10-31T01:11:35;31.50;;;16.47;;
2462;SDS011;1243;54.298;10.172;2022-10-31T01:14:01;31.27;;;19.90;;
2462;SDS011;1243;54.298;10.172;2022-10-31T01:16:27;22.13;;;15.87;;
2462;SDS011;1243;54.298;10.172;2022-10-31T01:18:54;27.10;;;18.90;;
2462;SDS011;1243;54.298;10.172;2022-10-31T01:21:24;29.47;;;18.00;;
2462;SDS011;1243;54.298;10.172;2022-10-31T01:23:54;24.97;;;17.20;;
2462;SDS011;1243;54.298;10.172;2022-10-31T01:26:22;21.60;;;17.27;;
2462;SDS011;1243;54.298;10.172;2022-10-31T01:28:53;21.80;;;16.60;;
2462;SDS011;1243;54.298;10.172;2022-10-31T01:31:25;22.43;;;15.87;;
2462;SDS011;1243;54.298;10.172;2022-10-31T01:33:53;25.10;;;16.70;;
2462;SDS011;1243;54.298;10.172;2022-10-31T01:38:49;32.03;;;17.93;;
2462;SDS011;1243;54.298;10.172;2022-10-31T01:41:20;26.37;;;18.17;;
2462;SDS011;1243;54.298;10.172;2022-10-31T01:46:16;28.17;;;18.00;;
2462;SDS011;1243;54.298;10.172;2022-10-31T01:48:46;29.93;;;19.30;;
2462;SDS011;1243;54.298;10.172;2022-10-31T01:51:12;25.00;;;18.27;;
2462;SDS011;1243;54.298;10.172;2022-10-31T01:53:41;28.97;;;20.50;;
2462;SDS011;1243;54.298;10.172;2022-10-31T01:56:08;34.03;;;23.37;;
2462;SDS011;1243;54.298;10.172;2022-10-31T01:58:35;28.43;;;21.07;;
2462;SDS011;1243;54.298;10.172;2022-10-31T02:01:01;31.63;;;22.37;;
2462;SDS011;1243;54.298;10.172;2022-10-31T02:03:27;30.20;;;22.03;;
2462;SDS011;1243;54.298;10.172;2022-10-31T02:05:54;30.90;;;22.70;;
2462;SDS011;1243;54.298;10.172;2022-10-31T02:08:23;33.57;;;22.40;;
2462;SDS011;1243;54.298;10.172;2022-10-31T02:10:53;36.63;;;21.30;;
2462;SDS011;1243;54.298;10.172;2022-10-31T02:13:21;47.93;;;24.27;;
2462;SDS011;1243;54.298;10.172;2022-10-31T02:15:55;39.00;;;23.70;;
2462;SDS011;1243;54.298;10.172;2022-10-31T02:18:22;36.67;;;22.80;;
2462;SDS011;1243;54.298;10.172;2022-10-31T02:26:33;43.10;;;25.77;;
2462;SDS011;1243;54.298;10.172;2022-10-31T02:34:44;43.93;;;23.87;;
2462;SDS011;1243;54.298;10.172;2022-10-31T02:40:15;42.73;;;22.03;;
2462;SDS011;1243;54.298;10.172;2022-10-31T02:48:20;35.93;;;22.60;;
2462;SDS011;1243;54.298;10.172;2022-10-31T02:50:52;42.70;;;24.13;;
2462;SDS011;1243;54.298;10.172;2022-10-31T02:53:25;38.30;;;23.53;;
2462;SDS011;1243;54.298;10.172;2022-10-31T02:56:02;47.43;;;23.47;;
2462;SDS011;1243;54.298;10.172;2022-10-31T02:58:33;39.27;;;23.30;;
2462;SDS011;1243;54.298;10.172;2022-10-31T03:04:02;41.20;;;22.87;;
2462;SDS011;1243;54.298;10.172;2022-10-31T03:09:33;41.13;;;23.37;;
2462;SDS011;1243;54.298;10.172;2022-10-31T03:12:21;40.17;;;23.70;;
2462;SDS011;1243;54.298;10.172;2022-10-31T03:18:09;39.53;;;23.57;;
2462;SDS011;1243;54.298;10.172;2022-10-31T03:20:41;40.63;;;22.40;;
2462;SDS011;1243;54.298;10.172;2022-10-31T03:23:21;44.10;;;23.00;;
2462;SDS011;1243;54.298;10.172;2022-10-31T03:25:49;46.57;;;22.30;;
2462;SDS011;1243;54.298;10.172;2022-10-31T03:28:18;38.73;;;23.10;;
2462;SDS011;1243;54.298;10.172;2022-10-31T03:30:48;37.83;;;21.53;;
2462;SDS011;1243;54.298;10.172;2022-10-31T03:33:17;39.47;;;23.07;;
2462;SDS011;1243;54.298;10.172;2022-10-31T03:35:48;44.33;;;24.57;;
2462;SDS011;1243;54.298;10.172;2022-10-31T03:38:17;43.77;;;23.70;;
2462;SDS011;1243;54.298;10.172;2022-10-31T03:40:45;43.27;;;22.60;;
2462;SDS011;1243;54.298;10.172;2022-10-31T03:43:16;29.30;;;19.23;;
2462;SDS011;1243;54.298;10.172;2022-10-31T03:45:45;41.93;;;25.30;;
2462;SDS011;1243;54.298;10.172;2022-10-31T03:48:13;39.60;;;22.70;;
2462;SDS011;1243;54.298;10.172;2022-10-31T03:50:50;33.13;;;21.97;;
2462;SDS011;1243;54.298;10.172;2022-10-31T03:53:40;42.33;;;24.43;;
2462;SDS011;1243;54.298;10.172;2022-10-31T03:56:19;33.97;;;20.73;;
2462;SDS011;1243;54.298;10.172;2022-10-31T04:01:55;37.77;;;22.47;;
2462;SDS011;1243;54.298;10.172;2022-10-31T04:04:24;40.00;;;23.37;;
2462;SDS011;1243;54.298;10.172;2022-10-31T04:06:50;44.40;;;22.93;;
2462;SDS011;1243;54.298;10.172;2022-10-31T04:09:18;35.33;;;24.00;;
2462;SDS011;1243;54.298;10.172;2022-10-31T04:11:46;42.43;;;24.07;;
2462;SDS011;1243;54.298;10.172;2022-10-31T04:14:16;39.90;;;22.90;;
2462;SDS011;1243;54.298;10.172;2022-10-31T04:16:42;40.53;;;23.53;;
2462;SDS011;1243;54.298;10.172;2022-10-31T04:19:09;44.10;;;23.33;;
2462;SDS011;1243;54.298;10.172;2022-10-31T04:21:36;38.43;;;23.00;;
2462;SDS011;1243;54.298;10.172;2022-10-31T04:24:01;40.40;;;23.57;;
2462;SDS011;1243;54.298;10.172;2022-10-31T04:26:27;40.57;;;22.93;;
2462;SDS011;1243;54.298;10.172;2022-10-31T04:28:53;38.40;;;22.97;;
2462;SDS011;1243;54.298;10.172;2022-10-31T04:31:18;41.03;;;23.17;;
2462;SDS011;1243;54.298;10.172;2022-10-31T04:33:44;38.10;;;23.20;;
2462;SDS011;1243;54.298;10.172;2022-10-31T04:36:10;41.03;;;22.10;;
2462;SDS011;1243;54.298;10.172;2022-10-31T04:38:36;44.87;;;23.43;;
2462;SDS011;1243;54.298;10.172;2022-10-31T04:41:01;43.47;;;23.50;;
2462;SDS011;1243;54.298;10.172;2022-10-31T04:43:27;40.70;;;24.60;;
2462;SDS011;1243;54.298;10.172;2022-10-31T04:45:53;41.60;;;23.63;;
2462;SDS011;1243;54.298;10.172;2022-10-31T04:48:18;36.87;;;21.87;;
2462;SDS011;1243;54.298;10.172;2022-10-31T04:50:44;39.50;;;22.97;;
2462;SDS011;1243;54.298;10.172;2022-10-31T04:53:10;37.93;;;21.43;;
2462;SDS011;1243;54.298;10.172;2022-10-31T04:55:36;40.17;;;24.20;;
2462;SDS011;1243;54.298;10.172;2022-10-31T04:58:01;35.17;;;21.30;;
2462;SDS011;1243;54.298;10.172;2022-10-31T05:00:27;43.97;;;24.70;;
2462;SDS011;1243;54.298;10.172;2022-10-31T05:02:54;34.00;;;20.10;;
2462;SDS011;1243;54.298;10.172;2022-10-31T05:05:23;37.77;;;19.30;;
2462;SDS011;1243;54.298;10.172;2022-10-31T05:07:52;35.47;;;20.70;;
2462;SDS011;1243;54.298;10.172;2022-10-31T05:10:19;39.93;;;21.43;;
2462;SDS011;1243;54.298;10.172;2022-10-31T05:12:47;40.20;;;21.00;;
2462;SDS011;1243;54.298;10.172;2022-10-31T05:15:18;36.03;;;21.30;;
2462;SDS011;1243;54.298;10.172;2022-10-31T05:17:45;32.63;;;19.60;;
2462;SDS011;1243;54.298;10.172;2022-10-31T05:20:12;37.90;;;21.10;;
2462;SDS011;1243;54.298;10.172;2022-10-31T05:22:45;39.40;;;19.20;;
2462;SDS011;1243;54.298;10.172;2022-10-31T05:25:13;32.37;;;19.40;;
2462;SDS011;1243;54.298;10.172;2022-10-31T05:27:39;32.20;;;18.73;;
2462;SDS011;1243;54.298;10.172;2022-10-31T05:30:06;31.57;;;18.93;;
2462;SDS011;1243;54.298;10.172;2022-10-31T05:32:39;31.43;;;18.47;;
2462;SDS011;1243;54.298;10.172;2022-10-31T05:35:10;36.07;;;18.67;;
2462;SDS011;1243;54.298;10.172;2022-10-31T05:37:38;39.43;;;18.47;;
2462;SDS011;1243;54.298;10.172;2022-10-31T05:40:04;45.40;;;18.67;;
2462;SDS011;1243;54.298;10.172;2022-10-31T05:42:31;37.37;;;21.73;;
2462;SDS011;1243;54.298;10.172;2022-10-31T05:44:57;39.57;;;18.90;;
2462;SDS011;1243;54.298;10.172;2022-10-31T05:47:23;34.87;;;18.50;;
2462;SDS011;1243;54.298;10.172;2022-10-31T05:49:49;39.57;;;19.70;;
2462;SDS011;1243;54.298;10.172;2022-10-31T05:52:15;36.53;;;20.27;;
2462;SDS011;1243;54.298;10.172;2022-10-31T05:54:41;38.77;;;18.47;;
2462;SDS011;1243;54.298;10.172;2022-10-31T05:57:06;40.33;;;19.23;;
2462;SDS011;1243;54.298;10.172;2022-10-31T05:59:32;39.23;;;17.83;;
2462;SDS011;1243;54.298;10.172;2022-10-31T06:01:58;41.20;;;19.43;;
2462;SDS011;1243;54.298;10.172;2022-10-31T06:04:23;27.90;;;15.40;;
2462;SDS011;1243;54.298;10.172;2022-10-31T06:06:49;37.23;;;21.63;;
2462;SDS011;1243;54.298;10.172;2022-10-31T06:09:15;36.90;;;15.47;;
2462;SDS011;1243;54.298;10.172;2022-10-31T06:11:41;36.77;;;18.03;;
2462;SDS011;1243;54.298;10.172;2022-10-31T06:14:06;33.30;;;15.53;;
2462;SDS011;1243;54.298;10.172;2022-10-31T06:16:32;30.83;;;16.10;;
2462;SDS011;1243;54.298;10.172;2022-10-31T06:18:58;32.30;;;17.40;;
2462;SDS011;1243;54.298;10.172;2022-10-31T06:21:24;29.40;;;16.83;;
2462;SDS011;1243;54.298;10.172;2022-10-31T06:23:49;31.27;;;15.03;;
2462;SDS011;1243;54.298;10.172;2022-10-31T06:26:15;25.93;;;16.00;;
2462;SDS011;1243;54.298;10.172;2022-10-31T06:28:41;32.20;;;16.50;;
2462;SDS011;1243;54.298;10.172;2022-10-31T06:31:06;29.07;;;14.07;;
2462;SDS011;1243;54.298;10.172;2022-10-31T06:33:32;36.07;;;15.90;;
2462;SDS011;1243;54.298;10.172;2022-10-31T06:35:59;40.00;;;17.80;;
2462;SDS011;1243;54.298;10.172;2022-10-31T06:38:25;29.07;;;16.00;;
2462;SDS011;1243;54.298;10.172;2022-10-31T06:40:51;32.97;;;16.50;;
2462;SDS011;1243;54.298;10.172;2022-10-31T06:43:17;30.77;;;16.23;;
2462;SDS011;1243;54.298;10.172;2022-10-31T06:45:43;32.63;;;15.80;;
2462;SDS011;1243;54.298;10.172;2022-10-31T06:48:09;28.40;;;14.63;;
2462;SDS011;1243;54.298;10.172;2022-10-31T06:50:34;27.00;;;15.03;;
2462;SDS011;1243;54.298;10.172;2022-10-31T06:53:00;26.27;;;14.10;;
2462;SDS011;1243;54.298;10.172;2022-10-31T06:55:27;29.17;;;14.37;;
2462;SDS011;1243;54.298;10.172;2022-10-31T06:57:53;29.87;;;14.43;;
2462;SDS011;1243;54.298;10.172;2022-10-31T07:00:26;35.67;;;17.53;;
2462;SDS011;1243;54.298;10.172;2022-10-31T07:03:00;42.33;;;16.30;;
2462;SDS011;1243;54.298;10.172;2022-10-31T07:05:26;32.73;;;15.73;;
2462;SDS011;1243;54.298;10.172;2022-10-31T07:07:56;31.80;;;15.57;;
2462;SDS011;1243;54.298;10.172;2022-10-31T07:10:28;26.90;;;14.10;;
2462;SDS011;1243;54.298;10.172;2022-10-31T07:12:56;26.07;;;16.30;;
2462;SDS011;1243;54.298;10.172;2022-10-31T07:15:23;23.07;;;15.30;;
2462;SDS011;1243;54.298;10.172;2022-10-31T07:17:49;34.63;;;14.17;;
2462;SDS011;1243;54.298;10.172;2022-10-31T07:20:15;20.80;;;12.40;;
2462;SDS011;1243;54.298;10.172;2022-10-31T07:22:41;21.60;;;13.27;;
2462;SDS011;1243;54.298;10.172;2022-10-31T07:25:07;23.90;;;13.60;;
2462;SDS011;1243;54.298;10.172;2022-10-31T07:27:39;26.90;;;11.40;;
2462;SDS011;1243;54.298;10.172;2022-10-31T07:30:07;25.20;;;14.50;;
2462;SDS011;1243;54.298;10.172;2022-10-31T07:32:44;24.17;;;13.40;;
2462;SDS011;1243;54.298;10.172;2022-10-31T07:35:14;21.77;;;13.23;;
2462;SDS011;1243;54.298;10.172;2022-10-31T07:37:42;24.50;;;13.87;;
2462;SDS011;1243;54.298;10.172;2022-10-31T07:40:08;22.77;;;14.53;;
2462;SDS011;1243;54.298;10.172;2022-10-31T07:42:38;24.03;;;14.13;;
2462;SDS011;1243;54.298;10.172;2022-10-31T07:45:08;19.43;;;12.30;;
2462;SDS011;1243;54.298;10.172;2022-10-31T07:47:39;30.00;;;12.93;;
2462;SDS011;1243;54.298;10.172;2022-10-31T07:50:06;26.40;;;13.30;;
2462;SDS011;1243;54.298;10.172;2022-10-31T07:52:32;26.47;;;13.57;;
2462;SDS011;1243;54.298;10.172;2022-10-31T07:54:58;27.80;;;13.67;;
2462;SDS011;1243;54.298;10.172;2022-10-31T07:57:23;21.33;;;12.80;;
2462;SDS011;1243;54.298;10.172;2022-10-31T07:59:49;18.97;;;13.27;;
2462;SDS011;1243;54.298;10.172;2022-10-31T08:02:15;22.20;;;13.27;;
2462;SDS011;1243;54.298;10.172;2022-10-31T08:04:40;22.53;;;13.13;;
2462;SDS011;1243;54.298;10.172;2022-10-31T08:07:06;21.83;;;11.73;;
2462;SDS011;1243;54.298;10.172;2022-10-31T08:09:32;28.17;;;10.07;;
2462;SDS011;1243;54.298;10.172;2022-10-31T08:11:57;17.33;;;8.60;;
2462;SDS011;1243;54.298;10.172;2022-10-31T08:14:23;26.77;;;10.53;;
2462;SDS011;1243;54.298;10.172;2022-10-31T08:16:48;20.40;;;10.50;;
2462;SDS011;1243;54.298;10.172;2022-10-31T08:19:14;25.97;;;11.80;;
2462;SDS011;1243;54.298;10.172;2022-10-31T08:21:40;20.17;;;11.00;;
2462;SDS011;1243;54.298;10.172;2022-10-31T08:24:05;16.63;;;9.97;;
2462;SDS011;1243;54.298;10.172;2022-10-31T08:26:31;25.77;;;9.83;;
2462;SDS011;1243;54.298;10.172;2022-10-31T08:28:57;23.23;;;9.40;;
2462;SDS011;1243;54.298;10.172;2022-10-31T08:31:23;14.07;;;9.57;;
2462;SDS011;1243;54.298;10.172;2022-10-31T08:33:52;13.43;;;9.63;;
2462;SDS011;1243;54.298;10.172;2022-10-31T08:36:18;15.97;;;10.43;;
2462;SDS011;1243;54.298;10.172;2022-10-31T08:38:44;23.53;;;9.17;;
2462;SDS011;1243;54.298;10.172;2022-10-31T08:41:11;17.10;;;9.57;;
2462;SDS011;1243;54.298;10.172;2022-10-31T08:43:37;23.73;;;9.30;;
2462;SDS011;1243;54.298;10.172;2022-10-31T08:46:02;13.77;;;9.07;;
2462;SDS011;1243;54.298;10.172;2022-10-31T08:48:29;12.90;;;9.50;;
2462;SDS011;1243;54.298;10.172;2022-10-31T08:50:58;14.17;;;8.20;;
2462;SDS011;1243;54.298;10.172;2022-10-31T08:53:24;16.80;;;8.97;;
2462;SDS011;1243;54.298;10.172;2022-10-31T08:55:51;15.17;;;9.33;;
2462;SDS011;1243;54.298;10.172;2022-10-31T08:58:20;22.23;;;8.70;;
2462;SDS011;1243;54.298;10.172;2022-10-31T09:00:47;13.33;;;8.30;;
2462;SDS011;1243;54.298;10.172;2022-10-31T09:03:15;31.30;;;10.33;;
2462;SDS011;1243;54.298;10.172;2022-10-31T09:05:54;20.93;;;9.33;;
2462;SDS011;1243;54.298;10.172;2022-10-31T09:08:21;23.97;;;9.77;;
2462;SDS011;1243;54.298;10.172;2022-10-31T09:10:47;24.43;;;9.20;;
2462;SDS011;1243;54.298;10.172;2022-10-31T09:13:14;22.03;;;8.23;;
2462;SDS011;1243;54.298;10.172;2022-10-31T09:15:43;21.83;;;9.20;;
2462;SDS011;1243;54.298;10.172;2022-10-31T09:18:10;14.50;;;9.43;;
2462;SDS011;1243;54.298;10.172;2022-10-31T09:20:36;20.70;;;8.80;;
2462;SDS011;1243;54.298;10.172;2022-10-31T09:23:04;18.20;;;8.10;;
2462;SDS011;1243;54.298;10.172;2022-10-31T09:25:37;24.50;;;7.93;;
2462;SDS011;1243;54.298;10.172;2022-10-31T09:28:04;17.77;;;9.93;;
2462;SDS011;1243;54.298;10.172;2022-10-31T09:30:32;23.33;;;9.10;;
2462;SDS011;1243;54.298;10.172;2022-10-31T09:33:01;13.73;;;8.70;;
2462;SDS011;1243;54.298;10.172;2022-10-31T09:35:36;15.90;;;8.47;;
2462;SDS011;1243;54.298;10.172;2022-10-31T09:38:04;16.47;;;8.90;;
2462;SDS011;1243;54.298;10.172;2022-10-31T09:40:42;11.73;;;8.43;;
2462;SDS011;1243;54.298;10.172;2022-10-31T09:48:55;16.47;;;8.87;;
2462;SDS011;1243;54.298;10.172;2022-10-31T09:51:39;15.43;;;9.30;;
2462;SDS011;1243;54.298;10.172;2022-10-31T09:54:16;13.30;;;8.20;;
2462;SDS011;1243;54.298;10.172;2022-10-31T09:57:07;13.50;;;8.03;;
2462;SDS011;1243;54.298;10.172;2022-10-31T09:59:39;10.17;;;6.97;;
2462;SDS011;1243;54.298;10.172;2022-10-31T10:02:21;10.90;;;7.70;;
2462;SDS011;1243;54.298;10.172;2022-10-31T10:10:17;13.20;;;7.37;;
2462;SDS011;1243;54.298;10.172;2022-10-31T10:16:02;11.50;;;7.50;;
2462;SDS011;1243;54.298;10.172;2022-10-31T10:21:43;15.47;;;7.83;;
2462;SDS011;1243;54.298;10.172;2022-10-31T10:24:23;13.73;;;7.60;;
2462;SDS011;1243;54.298;10.172;2022-10-31T10:30:18;16.70;;;9.10;;
2462;SDS011;1243;54.298;10.172;2022-10-31T10:32:56;19.17;;;8.87;;
2462;SDS011;1243;54.298;10.172;2022-10-31T10:35:32;15.77;;;8.97;;
2462;SDS011;1243;54.298;10.172;2022-10-31T10:38:10;15.60;;;9.43;;
2462;SDS011;1243;54.298;10.172;2022-10-31T10:40:42;17.23;;;9.50;;
2462;SDS011;1243;54.298;10.172;2022-10-31T10:45:49;16.83;;;8.77;;
2462;SDS011;1243;54.298;10.172;2022-10-31T10:51:27;15.47;;;9.30;;
2462;SDS011;1243;54.298;10.172;2022-10-31T10:54:04;12.00;;;8.30;;
2462;SDS011;1243;54.298;10.172;2022-10-31T10:59:19;16.80;;;8.83;;
2462;SDS011;1243;54.298;10.172;2022-10-31T11:01:48;14.43;;;9.90;;
2462;SDS011;1243;54.298;10.172;2022-10-31T11:04:32;17.73;;;10.10;;
2462;SDS011;1243;54.298;10.172;2022-10-31T11:06:59;20.17;;;10.00;;
2462;SDS011;1243;54.298;10.172;2022-10-31T11:09:30;19.00;;;8.03;;
2462;SDS011;1243;54.298;10.172;2022-10-31T11:11:58;14.00;;;8.77;;
2462;SDS011;1243;54.298;10.172;2022-10-31T11:14:30;14.10;;;9.20;;
2462;SDS011;1243;54.298;10.172;2022-10-31T11:17:11;13.90;;;8.07;;
2462;SDS011;1243;54.298;10.172;2022-10-31T11:22:39;16.63;;;9.37;;
2462;SDS011;1243;54.298;10.172;2022-10-31T11:27:44;15.87;;;8.03;;
2462;SDS011;1243;54.298;10.172;2022-10-31T11:30:31;15.60;;;8.37;;
2462;SDS011;1243;54.298;10.172;2022-10-31T11:33:11;11.43;;;7.20;;
2462;SDS011;1243;54.298;10.172;2022-10-31T11:35:43;14.60;;;9.17;;
2462;SDS011;1243;54.298;10.172;2022-10-31T11:38:12;12.03;;;7.23;;
2462;SDS011;1243;54.298;10.172;2022-10-31T11:40:53;18.17;;;8.90;;
2462;SDS011;1243;54.298;10.172;2022-10-31T11:43:21;10.57;;;7.33;;
2462;SDS011;1243;54.298;10.172;2022-10-31T11:45:48;12.50;;;7.97;;
2462;SDS011;1243;54.298;10.172;2022-10-31T11:48:17;11.73;;;7.23;;
2462;SDS011;1243;54.298;10.172;2022-10-31T11:50:53;13.83;;;8.10;;
2462;SDS011;1243;54.298;10.172;2022-10-31T11:53:26;15.30;;;8.93;;
2462;SDS011;1243;54.298;10.172;2022-10-31T11:56:05;13.80;;;7.77;;
2462;SDS011;1243;54.298;10.172;2022-10-31T11:58:38;10.80;;;6.53;;
2462;SDS011;1243;54.298;10.172;2022-10-31T12:01:05;14.70;;;8.33;;
2462;SDS011;1243;54.298;10.172;2022-10-31T12:06:05;9.53;;;6.43;;
2462;SDS011;1243;54.298;10.172;2022-10-31T12:08:51;13.17;;;7.30;;
2462;SDS011;1243;54.298;10.172;2022-10-31T12:16:59;13.23;;;6.70;;
2462;SDS011;1243;54.298;10.172;2022-10-31T12:19:35;15.87;;;7.20;;
2462;SDS011;1243;54.298;10.172;2022-10-31T12:22:11;12.13;;;6.70;;
2462;SDS011;1243;54.298;10.172;2022-10-31T12:27:32;9.67;;;6.33;;
2462;SDS011;1243;54.298;10.172;2022-10-31T12:30:40;13.13;;;7.13;;
2462;SDS011;1243;54.298;10.172;2022-10-31T12:33:37;14.57;;;7.03;;
2462;SDS011;1243;54.298;10.172;2022-10-31T12:44:54;12.73;;;7.20;;
2462;SDS011;1243;54.298;10.172;2022-10-31T12:54:50;13.93;;;6.40;;
2462;SDS011;1243;54.298;10.172;2022-10-31T13:00:19;10.20;;;5.77;;
2462;SDS011;1243;54.298;10.172;2022-10-31T13:02:50;14.10;;;7.23;;
2462;SDS011;1243;54.298;10.172;2022-10-31T13:05:31;10.20;;;6.50;;
2462;SDS011;1243;54.298;10.172;2022-10-31T13:08:12;13.00;;;6.10;;
2462;SDS011;1243;54.298;10.172;2022-10-31T13:10:46;7.97;;;5.03;;
2462;SDS011;1243;54.298;10.172;2022-10-31T13:13:17;9.77;;;5.47;;
2462;SDS011;1243;54.298;10.172;2022-10-31T13:21:21;10.00;;;5.50;;
2462;SDS011;1243;54.298;10.172;2022-10-31T13:23:50;9.70;;;5.60;;
2462;SDS011;1243;54.298;10.172;2022-10-31T13:29:00;15.43;;;5.33;;
2462;SDS011;1243;54.298;10.172;2022-10-31T13:31:33;8.40;;;4.80;;
2462;SDS011;1243;54.298;10.172;2022-10-31T13:34:01;13.87;;;5.83;;
2462;SDS011;1243;54.298;10.172;2022-10-31T13:36:33;10.60;;;4.67;;
2462;SDS011;1243;54.298;10.172;2022-10-31T13:41:50;7.37;;;5.63;;
2462;SDS011;1243;54.298;10.172;2022-10-31T13:44:25;9.13;;;6.03;;
2462;SDS011;1243;54.298;10.172;2022-10-31T13:46:53;11.17;;;5.53;;
2462;SDS011;1243;54.298;10.172;2022-10-31T13:54:51;7.37;;;5.50;;
2462;SDS011;1243;54.298;10.172;2022-10-31T14:02:53;7.93;;;5.33;;
2462;SDS011;1243;54.298;10.172;2022-10-31T14:05:25;14.80;;;5.27;;
2462;SDS011;1243;54.298;10.172;2022-10-31T14:07:56;9.73;;;6.83;;
2462;SDS011;1243;54.298;10.172;2022-10-31T14:10:28;9.27;;;6.07;;
2462;SDS011;1243;54.298;10.172;2022-10-31T14:16:22;9.03;;;6.20;;
2462;SDS011;1243;54.298;10.172;2022-10-31T14:18:57;9.00;;;5.23;;
2462;SDS011;1243;54.298;10.172;2022-10-31T14:23:50;6.60;;;5.30;;
2462;SDS011;1243;54.298;10.172;2022-10-31T14:28:52;7.30;;;5.17;;
2462;SDS011;1243;54.298;10.172;2022-10-31T14:33:57;12.83;;;6.00;;
2462;SDS011;1243;54.298;10.172;2022-10-31T14:36:44;7.17;;;5.60;;
2462;SDS011;1243;54.298;10.172;2022-10-31T14:47:36;10.83;;;7.10;;
2462;SDS011;1243;54.298;10.172;2022-10-31T14:50:24;8.17;;;6.37;;
2462;SDS011;1243;54.298;10.172;2022-10-31T14:53:20;9.70;;;5.13;;
2462;SDS011;1243;54.298;10.172;2022-10-31T14:55:50;7.60;;;5.60;;
2462;SDS011;1243;54.298;10.172;2022-10-31T14:58:20;12.03;;;5.60;;
2462;SDS011;1243;54.298;10.172;2022-10-31T15:00:54;8.67;;;6.20;;
2462;SDS011;1243;54.298;10.172;2022-10-31T15:03:26;13.13;;;6.07;;
2462;SDS011;1243;54.298;10.172;2022-10-31T15:06:16;10.03;;;5.83;;
2462;SDS011;1243;54.298;10.172;2022-10-31T15:08:45;11.00;;;5.37;;
2462;SDS011;1243;54.298;10.172;2022-10-31T15:11:25;7.80;;;5.10;;
2462;SDS011;1243;54.298;10.172;2022-10-31T15:13:53;8.23;;;5.00;;
2462;SDS011;1243;54.298;10.172;2022-10-31T15:16:34;11.43;;;5.97;;
2462;SDS011;1243;54.298;10.172;2022-10-31T15:19:05;10.87;;;6.80;;
2462;SDS011;1243;54.298;10.172;2022-10-31T15:21:35;10.70;;;5.80;;
2462;SDS011;1243;54.298;10.172;2022-10-31T15:24:05;11.57;;;6.43;;
2462;SDS011;1243;54.298;10.172;2022-10-31T15:26:37;14.03;;;6.27;;
2462;SDS011;1243;54.298;10.172;2022-10-31T15:29:15;11.00;;;6.57;;
2462;SDS011;1243;54.298;10.172;2022-10-31T15:31:51;7.27;;;5.00;;
2462;SDS011;1243;54.298;10.172;2022-10-31T15:34:33;7.57;;;6.57;;
2462;SDS011;1243;54.298;10.172;2022-10-31T15:37:15;10.87;;;7.13;;
2462;SDS011;1243;54.298;10.172;2022-10-31T15:39:43;15.10;;;7.73;;
2462;SDS011;1243;54.298;10.172;2022-10-31T15:45:00;8.73;;;6.07;;
2462;SDS011;1243;54.298;10.172;2022-10-31T15:47:29;11.83;;;7.77;;
2462;SDS011;1243;54.298;10.172;2022-10-31T15:49:57;10.80;;;7.83;;
2462;SDS011;1243;54.298;10.172;2022-10-31T15:52:29;10.50;;;7.30;;
2462;SDS011;1243;54.298;10.172;2022-10-31T15:55:00;18.40;;;12.87;;
2462;SDS011;1243;54.298;10.172;2022-10-31T15:57:44;11.70;;;8.80;;
2462;SDS011;1243;54.298;10.172;2022-10-31T16:05:49;12.80;;;8.47;;
2462;SDS011;1243;54.298;10.172;2022-10-31T16:08:23;12.23;;;7.37;;
2462;SDS011;1243;54.298;10.172;2022-10-31T16:10:55;10.83;;;7.83;;
2462;SDS011;1243;54.298;10.172;2022-10-31T16:13:29;12.50;;;7.50;;
2462;SDS011;1243;54.298;10.172;2022-10-31T16:16:15;10.60;;;6.80;;
2462;SDS011;1243;54.298;10.172;2022-10-31T16:18:42;12.07;;;8.07;;
2462;SDS011;1243;54.298;10.172;2022-10-31T16:21:08;18.00;;;6.73;;
2462;SDS011;1243;54.298;10.172;2022-10-31T16:23:35;17.77;;;7.30;;
2462;SDS011;1243;54.298;10.172;2022-10-31T16:26:06;16.10;;;8.97;;
2462;SDS011;1243;54.298;10.172;2022-10-31T16:28:33;11.73;;;7.60;;
2462;SDS011;1243;54.298;10.172;2022-10-31T16:31:00;23.23;;;10.73;;
2462;SDS011;1243;54.298;10.172;2022-10-31T16:35:53;15.77;;;10.33;;
2462;SDS011;1243;54.298;10.172;2022-10-31T16:38:20;17.93;;;9.53;;
2462;SDS011;1243;54.298;10.172;2022-10-31T16:40:45;17.00;;;9.00;;
2462;SDS011;1243;54.298;10.172;2022-10-31T16:43:13;12.63;;;8.87;;
2462;SDS011;1243;54.298;10.172;2022-10-31T16:45:46;10.03;;;8.70;;
2462;SDS011;1243;54.298;10.172;2022-10-31T16:48:15;14.60;;;9.50;;
2462;SDS011;1243;54.298;10.172;2022-10-31T16:50:42;13.13;;;8.53;;
2462;SDS011;1243;54.298;10.172;2022-10-31T16:53:09;13.30;;;9.33;;
2462;SDS011;1243;54.298;10.172;2022-10-31T16:55:47;11.87;;;9.20;;
2462;SDS011;1243;54.298;10.172;2022-10-31T16:58:30;14.30;;;8.60;;
2462;SDS011;1243;54.298;10.172;2022-10-31T17:00:59;14.60;;;8.40;;
2462;SDS011;1243;54.298;10.172;2022-10-31T17:03:26;17.30;;;8.87;;
2462;SDS011;1243;54.298;10.172;2022-10-31T17:05:52;14.30;;;9.17;;
2462;SDS011;1243;54.298;10.172;2022-10-31T17:08:20;15.13;;;9.40;;
2462;SDS011;1243;54.298;10.172;2022-10-31T17:10:46;13.67;;;9.37;;
2462;SDS011;1243;54.298;10.172;2022-10-31T17:13:19;12.20;;;8.90;;
2462;SDS011;1243;54.298;10.172;2022-10-31T17:15:48;11.80;;;9.23;;
2462;SDS011;1243;54.298;10.172;2022-10-31T17:18:16;18.27;;;10.17;;
2462;SDS011;1243;54.298;10.172;2022-10-31T17:20:42;17.30;;;10.27;;
2462;SDS011;1243;54.298;10.172;2022-10-31T17:23:09;19.03;;;8.97;;
2462;SDS011;1243;54.298;10.172;2022-10-31T17:25:35;16.70;;;9.97;;
2462;SDS011;1243;54.298;10.172;2022-10-31T17:28:02;13.23;;;9.27;;
2462;SDS011;1243;54.298;10.172;2022-10-31T17:30:28;17.17;;;8.83;;